createdAt,value
2023-01-10T00:00:35.637Z,86.30
2023-01-10T00:03:04.395Z,86.55
2023-01-10T00:05:31.402Z,86.25
2023-01-10T00:07:59.145Z,86.10
2023-01-10T00:10:25.974Z,86.14
2023-01-10T00:13:14.498Z,86.05
2023-01-10T00:15:41.269Z,86.37
2023-01-10T00:18:07.906Z,85.96
2023-01-10T00:20:34.492Z,86.49
2023-01-10T00:23:01.136Z,86.47
2023-01-10T00:25:27.961Z,86.38
2023-01-10T00:28:04.545Z,86.27
2023-01-10T00:30:31.632Z,86.36
2023-01-10T00:32:58.147Z,86.70
2023-01-10T00:35:24.764Z,86.67
2023-01-10T00:37:54.732Z,86.24
2023-01-10T00:40:21.287Z,86.73
2023-01-10T00:43:06.447Z,86.57
2023-01-10T00:45:32.978Z,86.57
2023-01-10T00:47:59.448Z,86.63
2023-01-10T00:50:25.958Z,86.51
2023-01-10T00:52:52.502Z,86.22
2023-01-10T00:55:19.190Z,86.52
2023-01-10T00:57:45.690Z,86.09
2023-01-10T01:00:12.706Z,86.54
2023-01-10T01:02:39.540Z,86.33
2023-01-10T01:05:06.671Z,86.26
2023-01-10T01:07:33.167Z,85.71
2023-01-10T01:10:20.660Z,85.61
2023-01-10T01:12:47.190Z,85.70
2023-01-10T01:15:16.203Z,85.83
2023-01-10T01:17:45.913Z,85.80
2023-01-10T01:20:12.654Z,85.46
2023-01-10T01:22:39.267Z,85.33
2023-01-10T01:25:06.545Z,85.18
2023-01-10T01:27:34.967Z,85.34
2023-01-10T01:30:02.009Z,84.71
2023-01-10T01:32:28.524Z,84.61
2023-01-10T01:34:55.182Z,84.61
2023-01-10T01:37:21.750Z,84.65
2023-01-10T01:39:48.436Z,84.26
2023-01-10T01:42:35.528Z,84.29
2023-01-10T01:45:08.495Z,84.42
2023-01-10T01:47:41.782Z,84.19
2023-01-10T01:50:45.953Z,84.21
2023-01-10T01:53:28.639Z,84.38
2023-01-10T01:55:59.825Z,83.62
2023-01-10T01:58:39.688Z,83.75
2023-01-10T02:01:06.469Z,84.12
2023-01-10T02:03:33.316Z,83.90
2023-01-10T02:05:59.946Z,84.23
2023-01-10T02:08:26.499Z,83.80
2023-01-10T02:11:11.610Z,83.39
2023-01-10T02:13:42.166Z,83.78
2023-01-10T02:16:11.432Z,83.13
2023-01-10T02:18:42.599Z,82.81
2023-01-10T02:21:27.656Z,83.36
2023-01-10T02:24:03.065Z,83.29
2023-01-10T02:26:35.674Z,83.42
2023-01-10T02:29:20.323Z,83.29
2023-01-10T02:32:13.233Z,83.60
2023-01-10T02:34:53.543Z,83.34
2023-01-10T02:37:33.818Z,83.33
2023-01-10T02:40:30.203Z,83.55
2023-01-10T02:42:59.772Z,83.48
2023-01-10T02:45:55.361Z,83.53
2023-01-10T02:48:22.433Z,83.70
2023-01-10T02:50:58.985Z,83.68
2023-01-10T02:53:30.977Z,83.94
2023-01-10T02:56:34.374Z,83.59
2023-01-10T02:59:17.204Z,83.95
2023-01-10T03:01:50.047Z,84.17
2023-01-10T03:04:39.770Z,83.86
2023-01-10T03:07:27.569Z,84.07
2023-01-10T03:10:09.821Z,83.89
2023-01-10T03:12:45.932Z,83.45
2023-01-10T03:15:15.705Z,83.49
2023-01-10T03:17:46.875Z,83.45
2023-01-10T03:20:13.531Z,83.49
2023-01-10T03:22:43.432Z,83.23
2023-01-10T03:25:13.393Z,83.12
2023-01-10T03:27:55.981Z,82.81
2023-01-10T03:30:46.162Z,82.95
2023-01-10T03:33:16.866Z,83.13
2023-01-10T03:36:23.155Z,82.87
2023-01-10T03:38:57.231Z,82.71
2023-01-10T03:41:38.441Z,82.19
2023-01-10T03:44:29.887Z,82.43
2023-01-10T03:47:14.132Z,82.41
2023-01-10T03:49:43.341Z,82.46
2023-01-10T03:52:15.786Z,82.57
2023-01-10T03:54:43.816Z,82.62
2023-01-10T03:57:19.067Z,82.67
2023-01-10T03:59:46.292Z,82.60
2023-01-10T04:02:12.987Z,82.83
2023-01-10T04:04:39.534Z,82.55
2023-01-10T04:07:06.094Z,82.49
2023-01-10T04:09:32.823Z,82.67
2023-01-10T04:11:59.378Z,82.70
2023-01-10T04:14:25.965Z,83.12
2023-01-10T04:16:52.495Z,82.91
2023-01-10T04:19:19.092Z,82.97
2023-01-10T04:21:45.691Z,82.36
2023-01-10T04:24:12.349Z,82.56
2023-01-10T04:26:39.273Z,82.82
2023-01-10T04:29:06.199Z,82.86
2023-01-10T04:31:32.878Z,83.21
2023-01-10T04:34:00.144Z,83.31
2023-01-10T04:36:29.314Z,83.10
2023-01-10T04:38:55.881Z,82.65
2023-01-10T04:41:22.398Z,83.22
2023-01-10T04:43:49.803Z,82.87
2023-01-10T04:46:16.706Z,83.01
2023-01-10T04:48:45.441Z,83.07
2023-01-10T04:51:12.526Z,82.92
2023-01-10T04:53:39.328Z,83.03
2023-01-10T04:56:08.688Z,83.19
2023-01-10T04:58:38.451Z,83.11
2023-01-10T05:01:10.531Z,83.09
2023-01-10T05:03:37.665Z,82.96
2023-01-10T05:06:05.252Z,83.10
2023-01-10T05:08:31.930Z,82.49
2023-01-10T05:10:58.489Z,82.84
2023-01-10T05:13:26.335Z,82.62
2023-01-10T05:15:58.099Z,82.69
2023-01-10T05:18:25.981Z,83.04
2023-01-10T05:20:52.628Z,83.04
2023-01-10T05:23:19.666Z,83.52
2023-01-10T05:25:48.930Z,85.29
2023-01-10T05:28:15.512Z,84.41
2023-01-10T05:30:42.092Z,84.64
2023-01-10T05:33:08.776Z,84.19
2023-01-10T05:35:35.401Z,83.87
2023-01-10T05:38:02.105Z,84.79
2023-01-10T05:40:28.977Z,84.49
2023-01-10T05:42:55.669Z,84.06
2023-01-10T05:45:22.519Z,83.74
2023-01-10T05:47:49.097Z,83.40
2023-01-10T05:50:16.694Z,83.55
2023-01-10T05:52:44.484Z,83.86
2023-01-10T05:55:11.086Z,84.01
2023-01-10T05:57:37.589Z,83.44
2023-01-10T06:00:06.643Z,83.65
2023-01-10T06:02:33.572Z,83.34
2023-01-10T06:05:00.168Z,83.30
2023-01-10T06:07:26.838Z,82.82
2023-01-10T06:09:53.334Z,83.07
2023-01-10T06:12:19.938Z,82.96
2023-01-10T06:14:46.733Z,82.55
2023-01-10T06:17:13.315Z,83.42
2023-01-10T06:19:39.895Z,83.04
2023-01-10T06:22:06.443Z,82.92
2023-01-10T06:24:33.003Z,82.88
2023-01-10T06:27:03.842Z,82.70
2023-01-10T06:29:30.378Z,82.50
2023-01-10T06:32:00.353Z,82.45
2023-01-10T06:34:26.821Z,82.58
2023-01-10T06:36:53.361Z,82.56
2023-01-10T06:39:19.848Z,82.62
2023-01-10T06:41:46.359Z,83.38
2023-01-10T06:44:13.195Z,82.29
2023-01-10T06:46:39.724Z,82.60
2023-01-10T06:49:06.178Z,82.67
2023-01-10T06:51:33.203Z,82.71
2023-01-10T06:53:59.933Z,83.10
2023-01-10T06:56:26.484Z,82.73
2023-01-10T06:58:58.733Z,82.58
2023-01-10T07:01:25.375Z,82.87
2023-01-10T07:04:01.594Z,82.88
2023-01-10T07:06:28.331Z,82.62
2023-01-10T07:08:55.080Z,82.33
2023-01-10T07:11:21.561Z,82.21
2023-01-10T07:13:48.213Z,82.92
2023-01-10T07:16:16.484Z,83.24
2023-01-10T07:18:43.725Z,82.43
2023-01-10T07:21:11.734Z,82.12
2023-01-10T07:23:38.904Z,82.61
2023-01-10T07:26:07.953Z,82.76
2023-01-10T07:28:34.716Z,82.14
2023-01-10T07:31:05.883Z,82.47
2023-01-10T07:33:37.757Z,82.04
2023-01-10T07:36:04.678Z,81.83
2023-01-10T07:38:32.403Z,81.99
2023-01-10T07:41:02.526Z,82.67
2023-01-10T07:43:29.803Z,82.58
2023-01-10T07:46:01.034Z,82.33
2023-01-10T07:48:28.779Z,81.84
2023-01-10T07:50:57.009Z,82.61
2023-01-10T07:53:23.811Z,82.38
2023-01-10T07:55:50.717Z,81.69
2023-01-10T07:58:17.589Z,81.59
2023-01-10T08:00:46.084Z,81.79
2023-01-10T08:03:13.521Z,82.23
2023-01-10T08:05:40.418Z,82.04
2023-01-10T08:08:08.652Z,81.96
2023-01-10T08:10:36.278Z,82.38
2023-01-10T08:13:17.124Z,81.91
2023-01-10T08:15:45.662Z,81.38
2023-01-10T08:18:12.182Z,81.22
2023-01-10T08:20:38.866Z,81.38
2023-01-10T08:23:05.458Z,81.71
2023-01-10T08:25:31.959Z,81.31
2023-01-10T08:27:58.504Z,81.40
2023-01-10T08:30:25.059Z,82.03
2023-01-10T08:32:52.444Z,81.71
2023-01-10T08:35:19.278Z,81.89
2023-01-10T08:37:48.364Z,81.99
2023-01-10T08:40:15.050Z,82.32
2023-01-10T08:42:41.623Z,82.09
2023-01-10T08:45:08.824Z,82.31
2023-01-10T08:47:35.493Z,82.47
2023-01-10T08:50:02.845Z,82.23
2023-01-10T08:52:31.929Z,82.45
2023-01-10T08:54:58.482Z,82.50
2023-01-10T08:57:25.000Z,81.91
2023-01-10T08:59:51.550Z,82.17
2023-01-10T09:02:22.819Z,82.16
2023-01-10T09:04:49.374Z,82.16
2023-01-10T09:07:17.243Z,82.15
2023-01-10T09:09:44.480Z,81.84
2023-01-10T09:12:29.787Z,82.02
2023-01-10T09:14:57.313Z,81.70
2023-01-10T09:17:23.836Z,81.47
2023-01-10T09:19:50.361Z,81.74
2023-01-10T09:22:16.856Z,81.33
2023-01-10T09:24:47.626Z,81.46
2023-01-10T09:27:14.144Z,81.57
2023-01-10T09:29:40.964Z,81.31
2023-01-10T09:32:13.420Z,81.19
2023-01-10T09:34:39.896Z,81.23
2023-01-10T09:37:06.467Z,81.14
2023-01-10T09:39:33.909Z,80.73
2023-01-10T09:42:06.324Z,81.40
2023-01-10T09:44:46.554Z,80.93
2023-01-10T09:47:34.466Z,81.09
2023-01-10T09:50:09.986Z,80.93
2023-01-10T09:52:43.459Z,80.91
2023-01-10T09:55:27.355Z,80.47
2023-01-10T09:58:00.110Z,80.63
2023-01-10T10:00:50.484Z,80.20
2023-01-10T10:03:33.252Z,80.20
2023-01-10T10:06:11.120Z,80.10
2023-01-10T10:08:40.559Z,79.55
2023-01-10T10:11:25.448Z,79.88
2023-01-10T10:14:41.652Z,79.98
2023-01-10T10:17:32.667Z,79.63
2023-01-10T10:20:24.324Z,79.25
2023-01-10T10:23:19.346Z,79.17
2023-01-10T10:26:02.765Z,79.69
2023-01-10T10:28:37.344Z,79.73
2023-01-10T10:31:38.080Z,79.93
2023-01-10T10:34:36.727Z,79.85
2023-01-10T10:37:35.411Z,79.81
2023-01-10T10:40:17.653Z,79.79
2023-01-10T10:42:51.022Z,79.49
2023-01-10T10:45:25.214Z,79.75
2023-01-10T10:48:13.712Z,79.29
2023-01-10T10:50:58.305Z,79.54
2023-01-10T10:53:24.857Z,79.13
2023-01-10T10:55:52.659Z,78.92
2023-01-10T10:58:19.476Z,78.72
2023-01-10T11:00:46.601Z,78.71
2023-01-10T11:03:25.920Z,78.91
2023-01-10T11:05:56.281Z,78.66
2023-01-10T11:08:28.838Z,78.79
2023-01-10T11:10:58.056Z,78.96
2023-01-10T11:13:30.867Z,78.40
2023-01-10T11:15:57.714Z,78.35
2023-01-10T11:18:29.866Z,78.89
2023-01-10T11:21:03.884Z,78.01
2023-01-10T11:23:33.545Z,78.63
2023-01-10T11:26:00.768Z,78.66
2023-01-10T11:28:32.190Z,78.30
2023-01-10T11:31:00.340Z,78.36
2023-01-10T11:33:35.499Z,77.98
2023-01-10T11:36:04.319Z,78.18
2023-01-10T11:38:31.833Z,77.93
2023-01-10T11:41:03.005Z,78.25
2023-01-10T11:43:35.395Z,78.05
2023-01-10T11:46:23.210Z,77.56
2023-01-10T11:49:06.271Z,77.53
2023-01-10T11:51:40.745Z,77.56
2023-01-10T11:54:19.930Z,78.07
2023-01-10T11:56:56.574Z,78.14
2023-01-10T11:59:24.280Z,77.95
2023-01-10T12:02:05.233Z,77.67
2023-01-10T12:04:39.838Z,77.85
2023-01-10T12:07:10.797Z,77.96
2023-01-10T12:09:53.880Z,77.18
2023-01-10T12:12:29.839Z,77.37
2023-01-10T12:14:58.928Z,77.38
2023-01-10T12:17:35.766Z,77.62
2023-01-10T12:20:06.567Z,77.33
2023-01-10T12:22:44.031Z,77.18
2023-01-10T12:25:37.040Z,76.99
2023-01-10T12:28:27.237Z,76.88
2023-01-10T12:30:57.852Z,76.67
2023-01-10T12:33:35.583Z,76.80
2023-01-10T12:36:25.061Z,76.52
2023-01-10T12:39:14.470Z,76.46
2023-01-10T12:42:23.222Z,74.80
2023-01-10T12:45:01.652Z,75.04
2023-01-10T12:47:58.576Z,75.19
2023-01-10T12:50:41.300Z,75.06
2023-01-10T12:53:30.264Z,75.07
2023-01-10T12:56:00.441Z,75.29
2023-01-10T12:58:42.450Z,74.24
2023-01-10T13:01:13.674Z,74.37
2023-01-10T13:03:40.980Z,74.42
2023-01-10T13:06:08.399Z,73.60
2023-01-10T13:08:38.118Z,73.71
2023-01-10T13:11:07.907Z,73.42
2023-01-10T13:13:43.415Z,73.04
2023-01-10T13:16:25.130Z,73.26
2023-01-10T13:19:02.947Z,73.14
2023-01-10T13:21:31.459Z,72.70
2023-01-10T13:24:19.948Z,72.73
2023-01-10T13:26:56.544Z,73.06
2023-01-10T13:29:30.461Z,72.91
2023-01-10T13:32:00.597Z,72.39
2023-01-10T13:34:33.615Z,72.28
2023-01-10T13:37:10.923Z,72.99
2023-01-10T13:39:46.127Z,73.16
2023-01-10T13:42:51.408Z,72.67
2023-01-10T13:45:31.336Z,72.04
2023-01-10T13:48:23.098Z,72.26
2023-01-10T13:50:51.908Z,72.18
2023-01-10T13:53:18.340Z,72.46
2023-01-10T13:55:53.642Z,72.16
2023-01-10T13:58:42.021Z,71.90
2023-01-10T14:01:49.535Z,72.66
2023-01-10T14:04:23.644Z,72.31
2023-01-10T14:06:56.312Z,71.93
2023-01-10T14:09:22.794Z,71.50
2023-01-10T14:11:58.001Z,71.78
2023-01-10T14:14:40.980Z,71.61
2023-01-10T14:17:19.425Z,72.03
2023-01-10T14:19:48.610Z,71.96
2023-01-10T14:22:31.563Z,71.32
2023-01-10T14:25:01.462Z,71.35
2023-01-10T14:27:43.863Z,71.45
2023-01-10T14:30:19.555Z,72.06
2023-01-10T14:32:51.167Z,71.85
2023-01-10T14:35:22.383Z,71.25
2023-01-10T14:40:55.447Z,71.72
2023-01-10T14:43:27.341Z,71.37
2023-01-10T14:46:15.860Z,71.48
2023-01-10T14:48:51.028Z,71.85
2023-01-10T14:51:27.928Z,71.23
2023-01-10T14:54:03.191Z,71.60
2023-01-10T14:56:41.132Z,71.53
2023-01-10T14:59:31.170Z,71.13
2023-01-10T15:02:26.191Z,71.06
2023-01-10T15:04:59.037Z,71.11
2023-01-10T15:07:27.646Z,71.50
2023-01-10T15:09:57.332Z,71.12
2023-01-10T15:12:27.832Z,71.50
2023-01-10T15:15:07.595Z,71.56
2023-01-10T15:17:37.126Z,71.44
2023-01-10T15:20:04.848Z,71.74
2023-01-10T15:22:35.955Z,72.16
2023-01-10T15:25:28.336Z,71.89
2023-01-10T15:27:57.113Z,72.54
2023-01-10T15:30:26.873Z,72.39
2023-01-10T15:32:55.801Z,72.20
2023-01-10T15:35:35.397Z,72.16
2023-01-10T15:38:06.585Z,71.50
2023-01-10T15:40:36.708Z,71.88
2023-01-10T15:43:18.298Z,71.58
2023-01-10T15:45:46.220Z,73.01
2023-01-10T15:48:26.874Z,73.45
2023-01-10T15:50:56.160Z,74.01
2023-01-10T15:53:58.974Z,75.38
2023-01-10T15:56:29.180Z,75.99
2023-01-10T15:58:57.909Z,77.50
2023-01-10T16:01:27.112Z,77.24
2023-01-10T16:03:57.963Z,78.57
2023-01-10T16:06:36.585Z,78.58
2023-01-10T16:09:07.228Z,79.73
2023-01-10T16:11:59.499Z,80.15
2023-01-10T16:14:26.201Z,80.16
2023-01-10T16:16:52.738Z,81.26
2023-01-10T16:19:19.303Z,81.67
2023-01-10T16:21:51.120Z,81.58
2023-01-10T16:24:21.439Z,82.02
2023-01-10T16:26:49.855Z,82.43
2023-01-10T16:29:16.894Z,82.19
2023-01-10T16:31:43.737Z,82.85
2023-01-10T16:34:12.753Z,83.45
2023-01-10T16:36:41.326Z,83.58
2023-01-10T16:39:14.596Z,84.03
2023-01-10T16:42:01.645Z,84.61
2023-01-10T16:44:28.645Z,84.94
2023-01-10T16:46:55.710Z,85.60
2023-01-10T16:49:22.683Z,85.65
2023-01-10T16:51:50.090Z,86.25
2023-01-10T16:54:19.910Z,86.63
2023-01-10T16:56:47.660Z,87.03
2023-01-10T16:59:16.141Z,87.14
2023-01-10T17:01:49.896Z,87.45
2023-01-10T17:04:23.819Z,87.21
2023-01-10T17:06:50.857Z,87.69
2023-01-10T17:09:26.638Z,88.34
2023-01-10T17:12:03.620Z,88.02
2023-01-10T17:14:37.378Z,88.24
2023-01-10T17:17:06.823Z,88.33
2023-01-10T17:19:33.642Z,88.48
2023-01-10T17:22:03.293Z,89.06
2023-01-10T17:24:30.054Z,89.01
2023-01-10T17:26:59.441Z,89.23
2023-01-10T17:29:28.620Z,89.80
2023-01-10T17:31:58.043Z,90.06
2023-01-10T17:34:24.830Z,90.25
2023-01-10T17:36:53.903Z,90.08
2023-01-10T17:39:23.423Z,90.29
2023-01-10T17:41:49.968Z,90.51
2023-01-10T17:44:16.607Z,90.71
2023-01-10T17:46:43.115Z,90.88
2023-01-10T17:49:11.290Z,91.07
2023-01-10T17:51:39.776Z,91.27
2023-01-10T17:54:06.420Z,90.97
2023-01-10T17:56:32.909Z,91.43
2023-01-10T17:58:59.499Z,91.60
2023-01-10T18:01:26.432Z,91.62
2023-01-10T18:03:53.326Z,91.88
2023-01-10T18:06:24.906Z,91.77
2023-01-10T18:08:55.309Z,91.65
2023-01-10T18:11:25.155Z,91.88
2023-01-10T18:13:51.997Z,92.29
2023-01-10T18:16:18.574Z,92.00
2023-01-10T18:18:45.116Z,92.41
2023-01-10T18:21:18.011Z,92.83
2023-01-10T18:23:46.833Z,93.18
2023-01-10T18:26:13.917Z,93.52
2023-01-10T18:28:44.891Z,93.59
2023-01-10T18:31:18.716Z,93.52
2023-01-10T18:33:48.558Z,93.63
2023-01-10T18:36:19.348Z,93.38
2023-01-10T18:38:58.301Z,94.02
2023-01-10T18:41:24.957Z,93.80
2023-01-10T18:43:51.572Z,93.94
2023-01-10T18:46:28.434Z,94.20
2023-01-10T18:48:55.760Z,94.14
2023-01-10T18:51:26.804Z,94.20
2023-01-10T18:53:54.001Z,94.28
2023-01-10T18:56:20.508Z,94.34
2023-01-10T18:58:47.064Z,94.23
2023-01-10T19:01:17.998Z,94.16
2023-01-10T19:03:45.460Z,94.54
2023-01-10T19:06:16.384Z,94.11
2023-01-10T19:08:43.928Z,94.38
2023-01-10T19:11:14.328Z,93.88
2023-01-10T19:13:42.499Z,93.67
2023-01-10T19:16:12.409Z,94.14
2023-01-10T19:18:39.581Z,94.17
2023-01-10T19:21:07.504Z,93.26
2023-01-10T19:23:34.055Z,93.46
2023-01-10T19:26:00.582Z,93.45
2023-01-10T19:28:29.738Z,93.30
2023-01-10T19:31:04.077Z,93.42
2023-01-10T19:33:35.857Z,93.22
2023-01-10T19:36:06.937Z,92.86
2023-01-10T19:38:35.885Z,93.00
2023-01-10T19:41:03.792Z,93.06
2023-01-10T19:43:32.207Z,93.17
2023-01-10T19:46:01.174Z,93.62
2023-01-10T19:48:27.881Z,93.47
2023-01-10T19:50:54.418Z,93.57
2023-01-10T19:53:30.109Z,93.82
2023-01-10T19:56:04.913Z,93.72
2023-01-10T19:58:34.276Z,94.23
2023-01-10T20:01:30.353Z,94.51
2023-01-10T20:03:59.188Z,94.55
2023-01-10T20:06:34.001Z,94.66
2023-01-10T20:09:01.132Z,95.14
2023-01-10T20:11:37.733Z,95.36
2023-01-10T20:14:06.024Z,94.96
2023-01-10T20:16:32.642Z,94.99
2023-01-10T20:18:59.653Z,95.15
2023-01-10T20:21:29.214Z,95.27
2023-01-10T20:23:55.695Z,95.47
2023-01-10T20:26:30.825Z,95.26
2023-01-10T20:29:01.993Z,95.33
2023-01-10T20:31:31.696Z,95.11
2023-01-10T20:34:03.678Z,95.50
2023-01-10T20:37:00.732Z,95.35
2023-01-10T20:39:30.666Z,95.60
2023-01-10T20:41:57.829Z,95.57
2023-01-10T20:44:27.623Z,95.52
2023-01-10T20:46:56.296Z,95.43
2023-01-10T20:49:24.283Z,95.65
2023-01-10T20:51:53.614Z,95.53
2023-01-10T20:54:23.352Z,95.21
2023-01-10T20:56:49.955Z,95.52
2023-01-10T20:59:16.470Z,95.41
2023-01-10T21:01:44.507Z,95.90
2023-01-10T21:04:12.289Z,95.33
2023-01-10T21:06:38.902Z,95.11
2023-01-10T21:09:09.746Z,95.22
2023-01-10T21:11:52.076Z,94.79
2023-01-10T21:14:24.620Z,95.10
2023-01-10T21:16:51.357Z,95.02
2023-01-10T21:19:18.027Z,94.93
2023-01-10T21:21:47.124Z,94.67
2023-01-10T21:24:16.952Z,94.45
2023-01-10T21:26:44.713Z,94.42
2023-01-10T21:29:13.065Z,94.43
2023-01-10T21:31:40.067Z,94.25
2023-01-10T21:34:09.770Z,93.61
2023-01-10T21:36:36.431Z,93.65
2023-01-10T21:39:03.065Z,93.74
2023-01-10T21:41:49.335Z,93.11
2023-01-10T21:44:16.361Z,93.16
2023-01-10T21:46:45.069Z,93.35
2023-01-10T21:49:11.721Z,93.16
2023-01-10T21:51:38.445Z,93.51
2023-01-10T21:54:05.127Z,93.58
2023-01-10T21:56:32.655Z,94.07
2023-01-10T21:58:59.750Z,94.16
2023-01-10T22:01:26.358Z,94.85
2023-01-10T22:03:53.167Z,95.01
2023-01-10T22:06:20.041Z,95.58
2023-01-10T22:08:46.774Z,95.83
2023-01-10T22:11:16.271Z,95.91
2023-01-10T22:13:42.807Z,95.83
2023-01-10T22:16:09.670Z,95.66
2023-01-10T22:18:38.651Z,96.03
2023-01-10T22:21:05.344Z,96.39
2023-01-10T22:23:32.091Z,96.50
2023-01-10T22:26:07.224Z,96.63
2023-01-10T22:28:34.494Z,97.10
2023-01-10T22:31:01.778Z,97.31
2023-01-10T22:33:30.429Z,96.95
2023-01-10T22:35:57.201Z,97.14
2023-01-10T22:38:24.019Z,97.33
2023-01-10T22:40:50.606Z,97.33
2023-01-10T22:43:17.199Z,97.36
2023-01-10T22:45:43.871Z,97.24
2023-01-10T22:48:10.932Z,97.70
2023-01-10T22:50:37.692Z,97.75
2023-01-10T22:53:04.408Z,97.62
2023-01-10T22:55:30.996Z,97.63
2023-01-10T22:57:57.744Z,97.24
2023-01-10T23:00:24.450Z,97.58
2023-01-10T23:02:51.110Z,97.39
2023-01-10T23:05:17.762Z,97.29
2023-01-10T23:07:44.331Z,97.43
2023-01-10T23:10:28.533Z,97.28
2023-01-10T23:12:55.675Z,97.34
2023-01-10T23:15:22.235Z,97.38
2023-01-10T23:17:49.017Z,97.37
2023-01-10T23:20:17.061Z,97.21
2023-01-10T23:22:44.477Z,97.12
2023-01-10T23:25:14.118Z,96.73
2023-01-10T23:27:40.906Z,96.90
2023-01-10T23:30:09.649Z,96.79
2023-01-10T23:32:36.576Z,96.48
2023-01-10T23:35:03.582Z,96.41
2023-01-10T23:37:30.104Z,96.36
2023-01-10T23:39:56.701Z,96.22
2023-01-10T23:42:23.300Z,95.77
2023-01-10T23:44:50.008Z,96.11
2023-01-10T23:47:16.574Z,96.06
2023-01-10T23:49:43.140Z,95.37
2023-01-10T23:52:09.763Z,95.61
2023-01-10T23:54:36.531Z,95.64
2023-01-10T23:57:03.384Z,95.43
2023-01-10T23:59:29.971Z,95.02
